Meteorología y climatología de Navarra
Datos de la estación - Meteo Navarra

Estación de Sartaguda GN

Altitud 310 m.


Datos desde el 07/12/2018 hasta el 08/12/2018 en horario solar
Los datos son PROVISIONALES

Anterior Página 1 de 1 Siguiente Descargar: Formato para Excel 2000 o superior   Formato csv   Formato para OpenOffice Calc
Fecha Temperatura Humedad relativa Radiación global Insolación Precipitación Vel. viento 10 m Vel. viento 10 m Dir. viento 10 m
ºC % W/m² s l/m² m/s km/h º
07/12/2018 0:00 7.2 82 0.0 0 0.0 2.1 7.5 358
07/12/2018 0:10 7.0 83 0.0 0 0.0 2.3 8.2 359
07/12/2018 0:20 6.9 84 0.0 0 0.0 2.6 9.3 359
07/12/2018 0:30 6.8 84 0.0 0 0.0 1.9 6.9 359
07/12/2018 0:40 6.6 84 0.0 0 0.0 2.0 7.0 3
07/12/2018 0:50 6.6 84 0.0 0 0.0 2.1 7.6 355
07/12/2018 1:00 6.6 84 0.0 0 0.0 2.0 7.1 1
07/12/2018 1:10 6.5 84 0.0 0 0.0 2.1 7.4 0
07/12/2018 1:20 6.3 84 0.0 0 0.0 1.5 5.4 359
07/12/2018 1:30 6.3 85 0.0 0 0.0 1.3 4.6 358
07/12/2018 1:40 6.2 85 0.0 0 0.0 1.5 5.4 348
07/12/2018 1:50 6.2 84 0.0 0 0.0 1.6 5.8 354
07/12/2018 2:00 6.0 85 0.0 0 0.0 2.0 7.1 2
07/12/2018 2:10 5.9 86 0.0 0 0.0 2.7 9.5 357
07/12/2018 2:20 5.9 86 0.0 0 0.0 2.8 10.0 353
07/12/2018 2:30 5.7 86 0.0 0 0.0 2.7 9.7 358
07/12/2018 2:40 5.5 87 0.0 0 0.0 2.7 9.8 356
07/12/2018 2:50 5.3 87 0.0 0 0.0 2.1 7.5 360
07/12/2018 3:00 5.1 88 0.0 0 0.0 2.1 7.4 11
07/12/2018 3:10 4.9 87 0.0 0 0.0 1.1 4.0 357
07/12/2018 3:20 4.7 89 0.0 0 0.0 0.2 0.8 311
07/12/2018 3:30 4.7 88 0.0 0 0.0 1.1 4.0 311
07/12/2018 3:40 4.8 88 0.0 0 0.0 1.3 4.6 312
07/12/2018 3:50 4.8 88 0.0 0 0.0 1.2 4.4 301
07/12/2018 4:00 4.5 88 0.0 0 0.0 1.3 4.7 286
07/12/2018 4:10 4.4 88 0.0 0 0.0 0.9 3.1 294
07/12/2018 4:20 4.0 88 0.0 0 0.0 0.6 2.0 356
07/12/2018 4:30 3.7 89 0.0 0 0.0 1.1 4.0 351
07/12/2018 4:40 3.6 90 0.0 0 0.0 0.6 2.1 320
07/12/2018 4:50 3.4 91 0.0 0 0.0 0.8 3.0 302
07/12/2018 5:00 3.3 92 0.0 0 0.0 1.0 3.6 325
07/12/2018 5:10 3.1 92 0.0 0 0.0 1.2 4.3 333
07/12/2018 5:20 2.8 92 0.0 0 0.0 0.6 2.3 277
07/12/2018 5:30 2.1 94 0.0 0 0.0 0.5 1.7 226
07/12/2018 5:40 2.2 94 0.0 0 0.0 0.6 2.1 260
07/12/2018 5:50 2.2 94 0.0 0 0.0 0.8 3.0 316
07/12/2018 6:00 1.9 93 0.0 0 0.0 0.8 2.9 336
07/12/2018 6:10 1.3 94 0.0 0 0.0 0.4 1.5 117
07/12/2018 6:20 1.3 95 0.0 0 0.0 0.4 1.4 46
07/12/2018 6:30 1.1 93 0.0 0 0.0 0.7 2.6 353
07/12/2018 6:40 1.1 94 0.0 0 0.0 0.7 2.6 332
07/12/2018 6:50 0.9 94 0.0 0 0.0 0.8 2.8 330
07/12/2018 7:00 0.8 95 0.0 0 0.0 0.9 3.2 320
07/12/2018 7:10 0.5 95 0.0 0 0.0 0.4 1.6 206
07/12/2018 7:20 0.4 95 0.0 0 0.0 0.4 1.3 297
07/12/2018 7:30 0.5 95 0.0 0 0.0 1.1 3.9 282
07/12/2018 7:40 0.8 96 21.4 66 0.0 1.2 4.3 277
07/12/2018 7:50 1.1 97 42.6 600 0.0 1.3 4.7 307
07/12/2018 8:00 1.5 97 63.8 600 0.0 1.4 5.0 313
07/12/2018 8:10 1.9 97 85.1 600 0.0 0.5 1.8 276
07/12/2018 8:20 2.2 97 103.4 600 0.0 0.6 2.0 350
07/12/2018 8:30 2.6 97 122.2 600 0.0 0.5 1.8 35
07/12/2018 8:40 3.1 96 141.4 600 0.0 0.5 1.8 27
07/12/2018 8:50 3.9 94 161.6 600 0.0 0.0 0.1 92
07/12/2018 9:00 4.7 90 195.4 600 0.0 0.4 1.4 185
07/12/2018 9:10 5.5 87 225.2 600 0.0 0.4 1.5 147
07/12/2018 9:20 5.9 84 245.6 600 0.0 0.8 3.0 140
07/12/2018 9:30 6.6 83 261.0 600 0.0 0.7 2.5 128
07/12/2018 9:40 7.0 81 283.3 600 0.0 1.1 3.9 153
07/12/2018 9:50 7.8 80 303.2 600 0.0 0.4 1.3 47
07/12/2018 10:00 8.2 79 322.6 600 0.0 1.3 4.8 46
07/12/2018 10:10 8.7 77 339.7 600 0.0 1.4 5.0 19
07/12/2018 10:20 9.4 75 352.1 600 0.0 0.8 3.0 18
07/12/2018 10:30 9.8 74 365.9 600 0.0 2.2 7.7 324
07/12/2018 10:40 10.2 73 382.3 600 0.0 2.7 9.8 325
07/12/2018 10:50 10.8 71 392.5 600 0.0 3.1 11.1 305
07/12/2018 11:00 11.3 69 405.4 600 0.0 3.8 13.8 296
07/12/2018 11:10 11.5 68 415.8 600 0.0 3.9 13.9 290
07/12/2018 11:20 11.8 67 420.5 600 0.0 3.8 13.7 288
07/12/2018 11:30 12.0 67 425.8 600 0.0 3.8 13.8 299
07/12/2018 11:40 12.4 66 434.5 600 0.0 3.8 13.5 282
07/12/2018 11:50 12.5 66 412.8 600 0.0 3.7 13.3 298
07/12/2018 12:00 12.6 65 440.2 600 0.0 3.6 12.8 301
07/12/2018 12:10 12.7 64 436.8 600 0.0 3.7 13.2 307
07/12/2018 12:20 13.1 65 432.8 600 0.0 3.7 13.3 290
07/12/2018 12:30 13.1 64 430.3 600 0.0 4.1 14.7 300
07/12/2018 12:40 13.2 63 425.7 600 0.0 4.4 15.8 295
07/12/2018 12:50 13.4 63 419.4 600 0.0 4.3 15.3 293
07/12/2018 13:00 13.6 62 413.2 600 0.0 4.3 15.5 292
07/12/2018 13:10 13.6 62 404.5 600 0.0 6.1 21.8 278
07/12/2018 13:20 13.8 62 392.9 600 0.0 5.0 17.9 284
07/12/2018 13:30 14.0 61 379.0 600 0.0 4.2 15.2 284
07/12/2018 13:40 14.1 62 367.5 600 0.0 4.3 15.6 291
07/12/2018 13:50 14.3 61 329.8 568 0.0 5.3 19.0 279
07/12/2018 14:00 14.3 61 331.2 600 0.0 4.9 17.7 287
07/12/2018 14:10 14.4 60 312.4 600 0.0 4.3 15.5 288
07/12/2018 14:20 14.6 59 296.1 600 0.0 3.5 12.6 302
07/12/2018 14:30 14.3 60 277.7 600 0.0 4.2 15.2 303
07/12/2018 14:40 14.4 60 256.6 600 0.0 3.0 10.7 300
07/12/2018 14:50 14.6 60 234.9 600 0.0 3.9 13.9 300
07/12/2018 15:00 14.3 61 212.5 600 0.0 3.0 10.8 290
07/12/2018 15:10 14.4 60 187.7 600 0.0 3.1 11.1 305
07/12/2018 15:20 14.1 61 162.3 600 0.0 3.5 12.7 304
07/12/2018 15:30 13.9 61 135.5 600 0.0 3.6 12.9 291
07/12/2018 15:40 13.8 62 113.3 600 0.0 2.3 8.4 279
07/12/2018 15:50 13.7 63 100.1 600 0.0 3.1 11.3 277
07/12/2018 16:00 13.4 63 85.7 600 0.0 2.0 7.2 260
07/12/2018 16:10 13.2 65 61.1 600 0.0 2.3 8.1 274
07/12/2018 16:20 13.0 65 30.4 280 0.0 3.1 11.3 291
07/12/2018 16:30 12.8 65 6.1 0 0.0 2.8 9.9 304
07/12/2018 16:40 12.7 65 0.0 0 0.0 3.6 13.1 280
07/12/2018 16:50 12.3 67 0.0 0 0.0 3.9 13.9 267
07/12/2018 17:00 12.1 68 0.0 0 0.0 4.1 14.8 276
07/12/2018 17:10 12.0 69 0.0 0 0.0 3.9 14.1 299
07/12/2018 17:20 11.9 70 0.0 0 0.0 3.2 11.4 304
07/12/2018 17:30 11.8 69 0.0 0 0.0 4.9 17.7 297
07/12/2018 17:40 12.0 68 0.0 0 0.0 5.6 20.3 290
07/12/2018 17:50 12.0 69 0.0 0 0.0 4.9 17.5 291
07/12/2018 18:00 12.0 69 0.0 0 0.0 4.9 17.6 300
07/12/2018 18:10 11.9 69 0.0 0 0.0 4.7 16.8 294
07/12/2018 18:20 11.9 70 0.0 0 0.0 3.2 11.6 312
07/12/2018 18:30 11.8 71 0.0 0 0.0 2.1 7.6 323
07/12/2018 18:40 11.8 71 0.0 0 0.0 2.9 10.3 310
07/12/2018 18:50 11.8 71 0.0 0 0.0 3.4 12.2 303
07/12/2018 19:00 11.8 70 0.0 0 0.0 4.0 14.2 309
07/12/2018 19:10 11.9 71 0.0 0 0.0 3.2 11.6 309
07/12/2018 19:20 11.8 72 0.0 0 0.0 2.8 10.0 303
07/12/2018 19:30 11.8 71 0.0 0 0.0 2.8 10.2 303
07/12/2018 19:40 11.8 72 0.0 0 0.0 3.1 11.0 297
07/12/2018 19:50 11.8 71 0.0 0 0.0 2.9 10.5 297
07/12/2018 20:00 11.8 71 0.0 0 0.0 3.1 11.3 290
07/12/2018 20:10 11.8 72 0.0 0 0.0 2.7 9.7 295
07/12/2018 20:20 11.7 72 0.0 0 0.0 2.3 8.2 285
07/12/2018 20:30 11.6 73 0.0 0 0.0 2.5 8.8 296
07/12/2018 20:40 11.7 73 0.0 0 0.0 3.1 11.1 297
07/12/2018 20:50 11.6 73 0.0 0 0.0 3.2 11.4 305
07/12/2018 21:00 11.4 74 0.0 0 0.0 3.2 11.4 311
07/12/2018 21:10 11.4 75 0.0 0 0.0 3.3 11.9 315
07/12/2018 21:20 11.3 76 0.0 0 0.0 3.5 12.5 285
07/12/2018 21:30 11.2 76 0.0 0 0.0 3.4 12.3 283
07/12/2018 21:40 11.3 76 0.0 0 0.0 2.8 10.0 287
07/12/2018 21:50 11.3 76 0.0 0 0.0 3.0 10.9 282
07/12/2018 22:00 11.2 76 0.0 0 0.0 2.8 10.2 283
07/12/2018 22:10 11.3 76 0.0 0 0.0 2.2 7.9 288
07/12/2018 22:20 11.2 77 0.0 0 0.0 2.6 9.4 285
07/12/2018 22:30 11.2 77 0.0 0 0.0 2.6 9.2 288
07/12/2018 22:40 11.2 77 0.0 0 0.0 2.7 9.8 285
07/12/2018 22:50 11.2 77 0.0 0 0.0 2.5 9.1 293
07/12/2018 23:00 11.1 78 0.0 0 0.0 2.1 7.4 297
07/12/2018 23:10 11.1 78 0.0 0 0.0 2.4 8.6 302
07/12/2018 23:20 11.1 77 0.0 0 0.0 2.7 9.8 305
07/12/2018 23:30 11.0 76 0.0 0 0.0 2.8 10.0 306
07/12/2018 23:40 10.9 76 0.0 0 0.0 2.2 8.1 300
07/12/2018 23:50 10.8 75 0.0 0 0.0 2.5 9.0 313
Anterior Página 1 de 1 Siguiente

NOTA: Tipo de datos según el color:
   - Valores diarios o 10 minutos correctos
   - Valores diarios calculados a partir de un número de datos 10 minutos menor que 144 y mayor que 120, o de un número de datos semihorarios menor que 48 y mayor que 40 (caso de las estaciones de Riegos de Navarra y del MARM)
   - Valores diez minutos estimados


Contacto        Enlaces        Aviso legal